Iowa Falls, Iowa
Current Conditions -  °F | °C
As of 9:15 AM on Thursday 18 Dec 2014 (Local Time) from KIFA Reporting Station
Clear Clear  
Wind Chill: 18°   Ceiling: Unl
Heat Index: 18°   Visibility: 10mi
Dew Point: 14°   Wind: 3mph
Humidity: 87%   Direction: 50°NE
Pressure: 30.28"   Gusts: NA
Location:  42.52°N, 93.26°W
Report Text: KIFA 181515Z AUTO 05003KT 10SM CLR M08/M10 A3028 RMK AO2 T10801098
Loading
Personal Weather Stations






























Interactive Weather Map New forecast layout! Learn more

10-Day Weather Forecast

Advertisements
Track Severe Weather on mobile